Alyeska Resort
Hourly Weather - Base Weather Site
ALY_BASE_HR 4/15/2014
CLICK TO VIEW GRAPH!!

        DATE  TIME   Air  BATT   H2o   H2o   Rel
                    Temp  Volt  Inch Since  Hum%
                      F   AVG   1HR  0600   AVG

   4/15/2014 19:00    42 13.79  0.00  0.00    75
   4/15/2014 18:00    44 13.78  0.00  0.00    73
   4/15/2014 17:00    44 13.76  0.00  0.00    69
   4/15/2014 16:00    44 13.77  0.00  0.00    70
   4/15/2014 15:00    44 13.77  0.00  0.00    69
   4/15/2014 14:00    43 13.79  0.00  0.00    71
   4/15/2014 13:00    41 13.83  0.00  0.00    81
   4/15/2014 12:00    39 13.86  0.00  0.00    84
   4/15/2014 11:00    39 13.89  0.00  0.00    82
   4/15/2014 10:00    38 13.92  0.00  0.00    84
   4/15/2014 09:00    37 13.94  0.00  0.00    85
   4/15/2014 08:00    36 13.96  0.00  0.00    85
   4/15/2014 07:00    36 13.96  0.00  0.00    82
   4/15/2014 06:00    35 13.97  0.00  0.00    83
   4/15/2014 05:00    36 13.97  0.00  0.00    82
   4/15/2014 04:00    35 13.98  0.00  0.00    85
   4/15/2014 03:00    35 13.99  0.00  0.00    83
   4/15/2014 02:00    34 14.00  0.00  0.00    86
   4/15/2014 01:00    33 14.00  0.00  0.00    86
   4/14/2014 24:00    33 13.98  0.00  0.00    84
   4/14/2014 23:00    35 13.94  0.00  0.00    81
   4/14/2014 22:00    37 13.88  0.00  0.00    77
   4/14/2014 21:00    39 13.80  0.00  0.00    70
   4/14/2014 20:00    44 13.72  0.00  0.00    59


CLICK TO VIEW GRAPH!!